sensor_id;sensor_type;location;lat;lon;timestamp;P1;durP1;ratioP1;P2;durP2;ratioP2
4051;SDS011;2040;50.924;11.604;2023-12-04T00:01:13;15.47;;;7.10;;
4051;SDS011;2040;50.924;11.604;2023-12-04T00:03:40;12.33;;;6.07;;
4051;SDS011;2040;50.924;11.604;2023-12-04T00:06:05;10.23;;;5.43;;
4051;SDS011;2040;50.924;11.604;2023-12-04T00:08:32;10.27;;;5.43;;
4051;SDS011;2040;50.924;11.604;2023-12-04T00:10:58;10.60;;;6.60;;
4051;SDS011;2040;50.924;11.604;2023-12-04T00:13:23;14.20;;;5.53;;
4051;SDS011;2040;50.924;11.604;2023-12-04T00:15:49;7.83;;;5.27;;
4051;SDS011;2040;50.924;11.604;2023-12-04T00:18:15;11.10;;;5.40;;
4051;SDS011;2040;50.924;11.604;2023-12-04T00:20:40;11.30;;;4.73;;
4051;SDS011;2040;50.924;11.604;2023-12-04T00:23:06;8.00;;;5.10;;
4051;SDS011;2040;50.924;11.604;2023-12-04T00:25:31;15.00;;;5.50;;
4051;SDS011;2040;50.924;11.604;2023-12-04T00:27:57;12.67;;;5.30;;
4051;SDS011;2040;50.924;11.604;2023-12-04T00:30:22;12.90;;;5.30;;
4051;SDS011;2040;50.924;11.604;2023-12-04T00:32:48;13.83;;;6.33;;
4051;SDS011;2040;50.924;11.604;2023-12-04T00:35:13;15.53;;;5.97;;
4051;SDS011;2040;50.924;11.604;2023-12-04T00:37:39;7.87;;;4.67;;
4051;SDS011;2040;50.924;11.604;2023-12-04T00:40:05;8.50;;;4.80;;
4051;SDS011;2040;50.924;11.604;2023-12-04T00:42:32;8.53;;;4.70;;
4051;SDS011;2040;50.924;11.604;2023-12-04T00:44:58;27.30;;;5.57;;
4051;SDS011;2040;50.924;11.604;2023-12-04T00:47:24;9.93;;;5.50;;
4051;SDS011;2040;50.924;11.604;2023-12-04T00:49:49;7.70;;;4.40;;
4051;SDS011;2040;50.924;11.604;2023-12-04T00:52:15;9.30;;;4.17;;
4051;SDS011;2040;50.924;11.604;2023-12-04T00:54:40;11.50;;;5.33;;
4051;SDS011;2040;50.924;11.604;2023-12-04T00:57:06;7.40;;;4.27;;
4051;SDS011;2040;50.924;11.604;2023-12-04T00:59:32;9.43;;;5.47;;
4051;SDS011;2040;50.924;11.604;2023-12-04T01:01:57;9.73;;;4.20;;
4051;SDS011;2040;50.924;11.604;2023-12-04T01:04:23;11.33;;;4.93;;
4051;SDS011;2040;50.924;11.604;2023-12-04T01:06:48;8.73;;;5.00;;
4051;SDS011;2040;50.924;11.604;2023-12-04T01:09:14;6.17;;;3.70;;
4051;SDS011;2040;50.924;11.604;2023-12-04T01:11:40;10.53;;;4.23;;
4051;SDS011;2040;50.924;11.604;2023-12-04T01:14:05;6.57;;;4.20;;
4051;SDS011;2040;50.924;11.604;2023-12-04T01:16:31;6.73;;;4.10;;
4051;SDS011;2040;50.924;11.604;2023-12-04T01:18:57;5.70;;;3.87;;
4051;SDS011;2040;50.924;11.604;2023-12-04T01:21:22;11.03;;;4.83;;
4051;SDS011;2040;50.924;11.604;2023-12-04T01:23:48;15.03;;;4.47;;
4051;SDS011;2040;50.924;11.604;2023-12-04T01:26:13;4.03;;;3.30;;
4051;SDS011;2040;50.924;11.604;2023-12-04T01:28:39;9.73;;;5.23;;
4051;SDS011;2040;50.924;11.604;2023-12-04T01:31:05;6.37;;;3.70;;
4051;SDS011;2040;50.924;11.604;2023-12-04T01:33:31;3.93;;;3.37;;
4051;SDS011;2040;50.924;11.604;2023-12-04T01:35:56;6.23;;;5.53;;
4051;SDS011;2040;50.924;11.604;2023-12-04T01:38:22;8.67;;;2.90;;
4051;SDS011;2040;50.924;11.604;2023-12-04T01:40:48;5.20;;;3.70;;
4051;SDS011;2040;50.924;11.604;2023-12-04T01:43:13;5.70;;;2.77;;
4051;SDS011;2040;50.924;11.604;2023-12-04T01:45:40;5.80;;;3.37;;
4051;SDS011;2040;50.924;11.604;2023-12-04T01:48:06;5.63;;;2.97;;
4051;SDS011;2040;50.924;11.604;2023-12-04T01:50:33;4.57;;;2.67;;
4051;SDS011;2040;50.924;11.604;2023-12-04T01:53:00;3.63;;;2.83;;
4051;SDS011;2040;50.924;11.604;2023-12-04T01:55:27;11.83;;;5.27;;
4051;SDS011;2040;50.924;11.604;2023-12-04T01:57:53;7.60;;;3.73;;
4051;SDS011;2040;50.924;11.604;2023-12-04T02:00:21;9.47;;;4.13;;
4051;SDS011;2040;50.924;11.604;2023-12-04T02:02:47;6.83;;;3.47;;
4051;SDS011;2040;50.924;11.604;2023-12-04T02:05:12;6.30;;;3.20;;
4051;SDS011;2040;50.924;11.604;2023-12-04T02:07:42;14.43;;;4.03;;
4051;SDS011;2040;50.924;11.604;2023-12-04T02:10:08;9.73;;;4.37;;
4051;SDS011;2040;50.924;11.604;2023-12-04T02:12:34;6.60;;;3.57;;
4051;SDS011;2040;50.924;11.604;2023-12-04T02:15:00;5.17;;;2.80;;
4051;SDS011;2040;50.924;11.604;2023-12-04T02:17:26;6.07;;;4.90;;
4051;SDS011;2040;50.924;11.604;2023-12-04T02:19:52;12.33;;;3.93;;
4051;SDS011;2040;50.924;11.604;2023-12-04T02:22:18;4.43;;;3.77;;
4051;SDS011;2040;50.924;11.604;2023-12-04T02:24:44;4.83;;;3.83;;
4051;SDS011;2040;50.924;11.604;2023-12-04T02:27:20;6.27;;;3.83;;
4051;SDS011;2040;50.924;11.604;2023-12-04T02:29:55;5.27;;;3.83;;
4051;SDS011;2040;50.924;11.604;2023-12-04T02:32:24;7.43;;;3.90;;
4051;SDS011;2040;50.924;11.604;2023-12-04T02:34:51;6.20;;;3.77;;
4051;SDS011;2040;50.924;11.604;2023-12-04T02:37:19;4.70;;;3.13;;
4051;SDS011;2040;50.924;11.604;2023-12-04T02:39:47;7.33;;;3.97;;
4051;SDS011;2040;50.924;11.604;2023-12-04T02:42:14;5.97;;;3.93;;
4051;SDS011;2040;50.924;11.604;2023-12-04T02:44:42;5.87;;;3.30;;
4051;SDS011;2040;50.924;11.604;2023-12-04T02:47:09;5.87;;;3.30;;
4051;SDS011;2040;50.924;11.604;2023-12-04T02:49:35;6.07;;;3.77;;
4051;SDS011;2040;50.924;11.604;2023-12-04T02:52:00;2.80;;;2.33;;
4051;SDS011;2040;50.924;11.604;2023-12-04T02:54:28;6.23;;;3.40;;
4051;SDS011;2040;50.924;11.604;2023-12-04T02:56:54;5.37;;;2.97;;
4051;SDS011;2040;50.924;11.604;2023-12-04T02:59:20;4.93;;;3.07;;
4051;SDS011;2040;50.924;11.604;2023-12-04T03:01:45;6.67;;;2.80;;
4051;SDS011;2040;50.924;11.604;2023-12-04T03:04:11;4.03;;;2.67;;
4051;SDS011;2040;50.924;11.604;2023-12-04T03:06:36;2.90;;;2.63;;
4051;SDS011;2040;50.924;11.604;2023-12-04T03:09:02;8.87;;;3.70;;
4051;SDS011;2040;50.924;11.604;2023-12-04T03:11:28;4.80;;;3.17;;
4051;SDS011;2040;50.924;11.604;2023-12-04T03:13:54;11.30;;;3.23;;
4051;SDS011;2040;50.924;11.604;2023-12-04T03:16:20;4.53;;;2.80;;
4051;SDS011;2040;50.924;11.604;2023-12-04T03:18:45;10.93;;;3.73;;
4051;SDS011;2040;50.924;11.604;2023-12-04T03:21:11;8.60;;;4.23;;
4051;SDS011;2040;50.924;11.604;2023-12-04T03:23:37;4.00;;;3.23;;
4051;SDS011;2040;50.924;11.604;2023-12-04T03:26:03;7.60;;;3.40;;
4051;SDS011;2040;50.924;11.604;2023-12-04T03:28:28;2.70;;;2.03;;
4051;SDS011;2040;50.924;11.604;2023-12-04T03:30:54;7.70;;;3.60;;
4051;SDS011;2040;50.924;11.604;2023-12-04T03:33:20;6.83;;;2.87;;
4051;SDS011;2040;50.924;11.604;2023-12-04T03:35:45;5.70;;;2.63;;
4051;SDS011;2040;50.924;11.604;2023-12-04T03:38:11;5.47;;;3.20;;
4051;SDS011;2040;50.924;11.604;2023-12-04T03:40:37;8.13;;;3.53;;
4051;SDS011;2040;50.924;11.604;2023-12-04T03:43:02;5.07;;;3.33;;
4051;SDS011;2040;50.924;11.604;2023-12-04T03:45:28;5.83;;;3.10;;
4051;SDS011;2040;50.924;11.604;2023-12-04T03:47:53;2.87;;;2.57;;
4051;SDS011;2040;50.924;11.604;2023-12-04T03:50:19;6.70;;;2.77;;
4051;SDS011;2040;50.924;11.604;2023-12-04T03:52:45;5.77;;;3.47;;
4051;SDS011;2040;50.924;11.604;2023-12-04T03:55:10;4.10;;;2.70;;
4051;SDS011;2040;50.924;11.604;2023-12-04T03:57:36;5.97;;;3.00;;
4051;SDS011;2040;50.924;11.604;2023-12-04T04:00:01;5.83;;;3.10;;
4051;SDS011;2040;50.924;11.604;2023-12-04T04:02:28;5.67;;;3.80;;
4051;SDS011;2040;50.924;11.604;2023-12-04T04:04:53;5.93;;;3.73;;
4051;SDS011;2040;50.924;11.604;2023-12-04T04:07:19;9.77;;;3.80;;
4051;SDS011;2040;50.924;11.604;2023-12-04T04:09:44;3.83;;;2.40;;
4051;SDS011;2040;50.924;11.604;2023-12-04T04:12:10;5.57;;;2.93;;
4051;SDS011;2040;50.924;11.604;2023-12-04T04:14:36;8.00;;;4.77;;
4051;SDS011;2040;50.924;11.604;2023-12-04T04:17:02;4.87;;;2.93;;
4051;SDS011;2040;50.924;11.604;2023-12-04T04:19:28;5.40;;;3.30;;
4051;SDS011;2040;50.924;11.604;2023-12-04T04:21:54;5.60;;;3.13;;
4051;SDS011;2040;50.924;11.604;2023-12-04T04:24:19;4.23;;;3.20;;
4051;SDS011;2040;50.924;11.604;2023-12-04T04:26:45;4.83;;;3.00;;
4051;SDS011;2040;50.924;11.604;2023-12-04T04:29:11;3.50;;;2.20;;
4051;SDS011;2040;50.924;11.604;2023-12-04T04:31:36;4.90;;;3.27;;
4051;SDS011;2040;50.924;11.604;2023-12-04T04:34:02;4.23;;;3.03;;
4051;SDS011;2040;50.924;11.604;2023-12-04T04:36:27;2.67;;;2.40;;
4051;SDS011;2040;50.924;11.604;2023-12-04T04:38:53;7.60;;;3.70;;
4051;SDS011;2040;50.924;11.604;2023-12-04T04:41:19;4.80;;;2.70;;
4051;SDS011;2040;50.924;11.604;2023-12-04T04:43:44;5.33;;;3.33;;
4051;SDS011;2040;50.924;11.604;2023-12-04T04:46:10;3.90;;;2.47;;
4051;SDS011;2040;50.924;11.604;2023-12-04T04:48:36;7.73;;;3.53;;
4051;SDS011;2040;50.924;11.604;2023-12-04T04:51:01;3.53;;;2.30;;
4051;SDS011;2040;50.924;11.604;2023-12-04T04:53:27;3.60;;;3.07;;
4051;SDS011;2040;50.924;11.604;2023-12-04T04:55:52;5.90;;;2.70;;
4051;SDS011;2040;50.924;11.604;2023-12-04T04:58:19;5.73;;;3.80;;
4051;SDS011;2040;50.924;11.604;2023-12-04T05:00:45;7.53;;;3.70;;
4051;SDS011;2040;50.924;11.604;2023-12-04T05:03:11;5.63;;;3.40;;
4051;SDS011;2040;50.924;11.604;2023-12-04T05:05:37;4.57;;;3.27;;
4051;SDS011;2040;50.924;11.604;2023-12-04T05:08:03;6.20;;;3.13;;
4051;SDS011;2040;50.924;11.604;2023-12-04T05:10:28;3.87;;;3.10;;
4051;SDS011;2040;50.924;11.604;2023-12-04T05:12:54;3.87;;;2.10;;
4051;SDS011;2040;50.924;11.604;2023-12-04T05:15:19;3.90;;;2.50;;
4051;SDS011;2040;50.924;11.604;2023-12-04T05:17:45;5.00;;;2.80;;
4051;SDS011;2040;50.924;11.604;2023-12-04T05:20:10;5.67;;;3.13;;
4051;SDS011;2040;50.924;11.604;2023-12-04T05:22:36;6.03;;;2.70;;
4051;SDS011;2040;50.924;11.604;2023-12-04T05:25:01;3.70;;;2.50;;
4051;SDS011;2040;50.924;11.604;2023-12-04T05:27:27;3.90;;;2.90;;
4051;SDS011;2040;50.924;11.604;2023-12-04T05:29:53;3.63;;;1.97;;
4051;SDS011;2040;50.924;11.604;2023-12-04T05:32:18;5.33;;;2.70;;
4051;SDS011;2040;50.924;11.604;2023-12-04T05:34:44;6.93;;;3.00;;
4051;SDS011;2040;50.924;11.604;2023-12-04T05:37:09;7.80;;;3.40;;
4051;SDS011;2040;50.924;11.604;2023-12-04T05:39:35;3.93;;;2.63;;
4051;SDS011;2040;50.924;11.604;2023-12-04T05:42:00;3.80;;;2.80;;
4051;SDS011;2040;50.924;11.604;2023-12-04T05:44:26;5.00;;;2.93;;
4051;SDS011;2040;50.924;11.604;2023-12-04T05:46:51;5.47;;;2.37;;
4051;SDS011;2040;50.924;11.604;2023-12-04T05:49:17;5.93;;;3.43;;
4051;SDS011;2040;50.924;11.604;2023-12-04T05:51:42;3.10;;;1.87;;
4051;SDS011;2040;50.924;11.604;2023-12-04T05:54:08;3.67;;;3.03;;
4051;SDS011;2040;50.924;11.604;2023-12-04T05:56:34;3.53;;;2.57;;
4051;SDS011;2040;50.924;11.604;2023-12-04T05:58:59;4.83;;;2.40;;
4051;SDS011;2040;50.924;11.604;2023-12-04T06:01:25;3.80;;;2.80;;
4051;SDS011;2040;50.924;11.604;2023-12-04T06:03:50;3.70;;;2.30;;
4051;SDS011;2040;50.924;11.604;2023-12-04T06:06:16;3.43;;;2.40;;
4051;SDS011;2040;50.924;11.604;2023-12-04T06:08:41;4.53;;;3.33;;
4051;SDS011;2040;50.924;11.604;2023-12-04T06:11:07;4.20;;;2.00;;
4051;SDS011;2040;50.924;11.604;2023-12-04T06:13:33;4.20;;;2.50;;
4051;SDS011;2040;50.924;11.604;2023-12-04T06:15:58;3.40;;;2.80;;
4051;SDS011;2040;50.924;11.604;2023-12-04T06:18:24;7.03;;;3.40;;
4051;SDS011;2040;50.924;11.604;2023-12-04T06:20:50;5.20;;;3.27;;
4051;SDS011;2040;50.924;11.604;2023-12-04T06:23:15;3.63;;;2.20;;
4051;SDS011;2040;50.924;11.604;2023-12-04T06:25:41;5.40;;;2.70;;
4051;SDS011;2040;50.924;11.604;2023-12-04T06:28:07;2.63;;;2.27;;
4051;SDS011;2040;50.924;11.604;2023-12-04T06:30:33;2.37;;;2.13;;
4051;SDS011;2040;50.924;11.604;2023-12-04T06:32:59;3.87;;;2.83;;
4051;SDS011;2040;50.924;11.604;2023-12-04T06:35:25;5.20;;;2.80;;
4051;SDS011;2040;50.924;11.604;2023-12-04T06:37:53;3.07;;;2.00;;
4051;SDS011;2040;50.924;11.604;2023-12-04T06:40:19;10.47;;;2.63;;
4051;SDS011;2040;50.924;11.604;2023-12-04T06:42:46;4.70;;;2.60;;
4051;SDS011;2040;50.924;11.604;2023-12-04T06:45:12;3.47;;;2.60;;
4051;SDS011;2040;50.924;11.604;2023-12-04T06:47:38;3.77;;;2.47;;
4051;SDS011;2040;50.924;11.604;2023-12-04T06:50:05;5.27;;;2.37;;
4051;SDS011;2040;50.924;11.604;2023-12-04T06:52:31;5.70;;;2.73;;
4051;SDS011;2040;50.924;11.604;2023-12-04T06:54:57;4.37;;;2.83;;
4051;SDS011;2040;50.924;11.604;2023-12-04T06:57:22;2.67;;;1.73;;
4051;SDS011;2040;50.924;11.604;2023-12-04T06:59:48;2.77;;;1.90;;
4051;SDS011;2040;50.924;11.604;2023-12-04T07:02:13;2.30;;;2.10;;
4051;SDS011;2040;50.924;11.604;2023-12-04T07:04:39;7.00;;;2.10;;
4051;SDS011;2040;50.924;11.604;2023-12-04T07:07:04;4.50;;;1.73;;
4051;SDS011;2040;50.924;11.604;2023-12-04T07:09:31;3.70;;;2.77;;
4051;SDS011;2040;50.924;11.604;2023-12-04T07:11:57;5.23;;;2.40;;
4051;SDS011;2040;50.924;11.604;2023-12-04T07:14:23;4.60;;;1.93;;
4051;SDS011;2040;50.924;11.604;2023-12-04T07:16:48;1.73;;;1.63;;
4051;SDS011;2040;50.924;11.604;2023-12-04T07:19:14;2.60;;;1.97;;
4051;SDS011;2040;50.924;11.604;2023-12-04T07:21:41;2.87;;;1.77;;
4051;SDS011;2040;50.924;11.604;2023-12-04T07:24:07;3.90;;;3.40;;
4051;SDS011;2040;50.924;11.604;2023-12-04T07:26:33;4.67;;;2.23;;
4051;SDS011;2040;50.924;11.604;2023-12-04T07:28:59;3.27;;;2.50;;
4051;SDS011;2040;50.924;11.604;2023-12-04T07:31:26;6.47;;;2.30;;
4051;SDS011;2040;50.924;11.604;2023-12-04T07:33:54;2.63;;;2.13;;
4051;SDS011;2040;50.924;11.604;2023-12-04T07:36:21;4.13;;;3.10;;
4051;SDS011;2040;50.924;11.604;2023-12-04T07:38:46;4.30;;;2.77;;
4051;SDS011;2040;50.924;11.604;2023-12-04T07:41:12;3.17;;;2.07;;
4051;SDS011;2040;50.924;11.604;2023-12-04T07:43:38;3.77;;;1.80;;
4051;SDS011;2040;50.924;11.604;2023-12-04T07:46:04;6.20;;;2.77;;
4051;SDS011;2040;50.924;11.604;2023-12-04T07:48:30;2.33;;;1.77;;
4051;SDS011;2040;50.924;11.604;2023-12-04T07:50:56;3.53;;;2.13;;
4051;SDS011;2040;50.924;11.604;2023-12-04T07:53:21;4.77;;;2.80;;
4051;SDS011;2040;50.924;11.604;2023-12-04T07:55:47;4.63;;;2.33;;
4051;SDS011;2040;50.924;11.604;2023-12-04T07:58:16;1.73;;;1.50;;
4051;SDS011;2040;50.924;11.604;2023-12-04T08:00:47;3.47;;;2.00;;
4051;SDS011;2040;50.924;11.604;2023-12-04T08:03:13;3.63;;;2.07;;
4051;SDS011;2040;50.924;11.604;2023-12-04T08:05:38;3.13;;;2.60;;
4051;SDS011;2040;50.924;11.604;2023-12-04T08:08:04;7.00;;;2.90;;
4051;SDS011;2040;50.924;11.604;2023-12-04T08:10:30;2.17;;;1.97;;
4051;SDS011;2040;50.924;11.604;2023-12-04T08:12:56;5.07;;;2.13;;
4051;SDS011;2040;50.924;11.604;2023-12-04T08:15:22;2.90;;;1.80;;
4051;SDS011;2040;50.924;11.604;2023-12-04T08:17:47;2.33;;;1.73;;
4051;SDS011;2040;50.924;11.604;2023-12-04T08:20:13;4.67;;;2.30;;
4051;SDS011;2040;50.924;11.604;2023-12-04T08:22:39;9.50;;;2.73;;
4051;SDS011;2040;50.924;11.604;2023-12-04T08:25:10;4.20;;;2.43;;
4051;SDS011;2040;50.924;11.604;2023-12-04T08:27:35;3.97;;;2.60;;
4051;SDS011;2040;50.924;11.604;2023-12-04T08:30:01;4.50;;;2.30;;
4051;SDS011;2040;50.924;11.604;2023-12-04T08:32:28;5.57;;;2.50;;
4051;SDS011;2040;50.924;11.604;2023-12-04T08:34:53;3.87;;;2.67;;
4051;SDS011;2040;50.924;11.604;2023-12-04T08:37:19;6.60;;;2.63;;
4051;SDS011;2040;50.924;11.604;2023-12-04T08:39:45;2.67;;;2.43;;
4051;SDS011;2040;50.924;11.604;2023-12-04T08:42:11;4.77;;;2.83;;
4051;SDS011;2040;50.924;11.604;2023-12-04T08:44:37;3.90;;;2.33;;
4051;SDS011;2040;50.924;11.604;2023-12-04T08:47:03;3.07;;;2.23;;
4051;SDS011;2040;50.924;11.604;2023-12-04T08:49:30;2.57;;;1.70;;
4051;SDS011;2040;50.924;11.604;2023-12-04T08:51:56;5.47;;;2.20;;
4051;SDS011;2040;50.924;11.604;2023-12-04T08:54:21;3.93;;;2.20;;
4051;SDS011;2040;50.924;11.604;2023-12-04T08:56:47;1.90;;;1.43;;
4051;SDS011;2040;50.924;11.604;2023-12-04T08:59:12;6.90;;;2.67;;
4051;SDS011;2040;50.924;11.604;2023-12-04T09:01:38;3.77;;;2.33;;
4051;SDS011;2040;50.924;11.604;2023-12-04T09:04:04;4.33;;;2.53;;
4051;SDS011;2040;50.924;11.604;2023-12-04T09:06:29;4.63;;;2.00;;
4051;SDS011;2040;50.924;11.604;2023-12-04T09:08:55;4.70;;;2.50;;
4051;SDS011;2040;50.924;11.604;2023-12-04T09:11:21;4.63;;;1.87;;
4051;SDS011;2040;50.924;11.604;2023-12-04T09:13:46;3.57;;;2.27;;
4051;SDS011;2040;50.924;11.604;2023-12-04T09:16:12;4.47;;;2.70;;
4051;SDS011;2040;50.924;11.604;2023-12-04T09:18:38;3.27;;;2.73;;
4051;SDS011;2040;50.924;11.604;2023-12-04T09:21:04;4.80;;;1.80;;
4051;SDS011;2040;50.924;11.604;2023-12-04T09:23:30;3.17;;;2.37;;
4051;SDS011;2040;50.924;11.604;2023-12-04T09:25:55;2.40;;;1.40;;
4051;SDS011;2040;50.924;11.604;2023-12-04T09:28:21;4.90;;;2.60;;
4051;SDS011;2040;50.924;11.604;2023-12-04T09:30:46;1.60;;;1.30;;
4051;SDS011;2040;50.924;11.604;2023-12-04T09:33:13;3.03;;;2.10;;
4051;SDS011;2040;50.924;11.604;2023-12-04T09:35:38;3.30;;;2.00;;
4051;SDS011;2040;50.924;11.604;2023-12-04T09:38:04;1.80;;;1.63;;
4051;SDS011;2040;50.924;11.604;2023-12-04T09:40:30;4.80;;;2.10;;
4051;SDS011;2040;50.924;11.604;2023-12-04T09:42:55;3.30;;;2.23;;
4051;SDS011;2040;50.924;11.604;2023-12-04T09:45:22;2.27;;;1.57;;
4051;SDS011;2040;50.924;11.604;2023-12-04T09:47:49;3.37;;;1.87;;
4051;SDS011;2040;50.924;11.604;2023-12-04T09:50:15;2.90;;;1.73;;
4051;SDS011;2040;50.924;11.604;2023-12-04T09:52:46;3.83;;;2.50;;
4051;SDS011;2040;50.924;11.604;2023-12-04T09:55:15;1.90;;;1.63;;
4051;SDS011;2040;50.924;11.604;2023-12-04T09:57:41;3.53;;;2.40;;
4051;SDS011;2040;50.924;11.604;2023-12-04T10:00:07;4.47;;;2.27;;
4051;SDS011;2040;50.924;11.604;2023-12-04T10:02:36;4.23;;;2.53;;
4051;SDS011;2040;50.924;11.604;2023-12-04T10:05:02;5.10;;;1.90;;
4051;SDS011;2040;50.924;11.604;2023-12-04T10:07:30;3.17;;;1.60;;
4051;SDS011;2040;50.924;11.604;2023-12-04T10:09:56;3.40;;;2.07;;
4051;SDS011;2040;50.924;11.604;2023-12-04T10:12:22;4.97;;;1.40;;
4051;SDS011;2040;50.924;11.604;2023-12-04T10:15:04;2.43;;;1.70;;
4051;SDS011;2040;50.924;11.604;2023-12-04T10:17:34;2.80;;;2.00;;
4051;SDS011;2040;50.924;11.604;2023-12-04T10:20:06;3.93;;;2.27;;
4051;SDS011;2040;50.924;11.604;2023-12-04T10:22:37;2.57;;;1.80;;
4051;SDS011;2040;50.924;11.604;2023-12-04T10:25:24;4.73;;;2.53;;
4051;SDS011;2040;50.924;11.604;2023-12-04T10:28:10;4.23;;;2.10;;
4051;SDS011;2040;50.924;11.604;2023-12-04T10:30:37;2.10;;;1.43;;
4051;SDS011;2040;50.924;11.604;2023-12-04T10:33:04;2.80;;;1.80;;
4051;SDS011;2040;50.924;11.604;2023-12-04T10:35:33;1.73;;;1.60;;
4051;SDS011;2040;50.924;11.604;2023-12-04T10:38:03;3.83;;;1.87;;
4051;SDS011;2040;50.924;11.604;2023-12-04T10:40:31;4.10;;;1.50;;
4051;SDS011;2040;50.924;11.604;2023-12-04T10:43:11;4.07;;;2.00;;
4051;SDS011;2040;50.924;11.604;2023-12-04T10:45:40;1.60;;;1.10;;
4051;SDS011;2040;50.924;11.604;2023-12-04T10:48:10;1.80;;;1.43;;
4051;SDS011;2040;50.924;11.604;2023-12-04T10:50:37;1.83;;;1.50;;
4051;SDS011;2040;50.924;11.604;2023-12-04T10:53:04;4.17;;;2.27;;
4051;SDS011;2040;50.924;11.604;2023-12-04T10:55:34;2.97;;;1.80;;
4051;SDS011;2040;50.924;11.604;2023-12-04T10:58:01;2.00;;;1.70;;
4051;SDS011;2040;50.924;11.604;2023-12-04T11:00:34;2.10;;;1.50;;
4051;SDS011;2040;50.924;11.604;2023-12-04T11:03:09;3.07;;;1.43;;
4051;SDS011;2040;50.924;11.604;2023-12-04T11:05:41;2.00;;;1.53;;
4051;SDS011;2040;50.924;11.604;2023-12-04T11:08:11;3.27;;;1.73;;
4051;SDS011;2040;50.924;11.604;2023-12-04T11:10:45;4.13;;;1.60;;
4051;SDS011;2040;50.924;11.604;2023-12-04T11:13:14;2.20;;;1.77;;
4051;SDS011;2040;50.924;11.604;2023-12-04T11:15:44;2.70;;;1.50;;
4051;SDS011;2040;50.924;11.604;2023-12-04T11:18:13;3.13;;;1.90;;
4051;SDS011;2040;50.924;11.604;2023-12-04T11:23:36;2.13;;;1.90;;
4051;SDS011;2040;50.924;11.604;2023-12-04T11:26:03;2.90;;;1.63;;
4051;SDS011;2040;50.924;11.604;2023-12-04T11:28:30;2.27;;;1.93;;
4051;SDS011;2040;50.924;11.604;2023-12-04T11:30:58;1.67;;;1.40;;
4051;SDS011;2040;50.924;11.604;2023-12-04T11:33:26;4.73;;;1.77;;
4051;SDS011;2040;50.924;11.604;2023-12-04T11:35:51;2.43;;;1.60;;
4051;SDS011;2040;50.924;11.604;2023-12-04T11:38:17;2.87;;;1.80;;
4051;SDS011;2040;50.924;11.604;2023-12-04T11:40:43;4.53;;;1.87;;
4051;SDS011;2040;50.924;11.604;2023-12-04T11:43:21;3.70;;;1.77;;
4051;SDS011;2040;50.924;11.604;2023-12-04T11:45:49;7.47;;;1.77;;
4051;SDS011;2040;50.924;11.604;2023-12-04T11:48:15;3.67;;;1.80;;
4051;SDS011;2040;50.924;11.604;2023-12-04T11:50:42;3.40;;;2.27;;
4051;SDS011;2040;50.924;11.604;2023-12-04T11:53:10;4.10;;;1.60;;
4051;SDS011;2040;50.924;11.604;2023-12-04T11:55:39;2.87;;;2.17;;
4051;SDS011;2040;50.924;11.604;2023-12-04T11:58:10;4.57;;;1.70;;
4051;SDS011;2040;50.924;11.604;2023-12-04T12:00:36;2.47;;;1.43;;
4051;SDS011;2040;50.924;11.604;2023-12-04T12:03:05;3.33;;;1.90;;
4051;SDS011;2040;50.924;11.604;2023-12-04T12:05:34;1.63;;;1.40;;
4051;SDS011;2040;50.924;11.604;2023-12-04T12:08:01;4.40;;;2.20;;
4051;SDS011;2040;50.924;11.604;2023-12-04T12:10:28;3.10;;;1.57;;
4051;SDS011;2040;50.924;11.604;2023-12-04T12:12:54;1.70;;;1.50;;
4051;SDS011;2040;50.924;11.604;2023-12-04T12:15:20;2.73;;;1.43;;
4051;SDS011;2040;50.924;11.604;2023-12-04T12:17:45;1.90;;;1.70;;
4051;SDS011;2040;50.924;11.604;2023-12-04T12:20:12;3.43;;;2.40;;
4051;SDS011;2040;50.924;11.604;2023-12-04T12:22:39;3.37;;;1.30;;
4051;SDS011;2040;50.924;11.604;2023-12-04T12:25:06;3.70;;;1.80;;
4051;SDS011;2040;50.924;11.604;2023-12-04T12:27:33;2.87;;;1.40;;
4051;SDS011;2040;50.924;11.604;2023-12-04T12:29:59;2.27;;;1.33;;
4051;SDS011;2040;50.924;11.604;2023-12-04T12:32:28;3.20;;;1.83;;
4051;SDS011;2040;50.924;11.604;2023-12-04T12:34:54;2.80;;;1.53;;
4051;SDS011;2040;50.924;11.604;2023-12-04T12:37:20;2.80;;;1.53;;
4051;SDS011;2040;50.924;11.604;2023-12-04T12:39:46;3.10;;;1.83;;
4051;SDS011;2040;50.924;11.604;2023-12-04T12:42:12;2.23;;;1.60;;
4051;SDS011;2040;50.924;11.604;2023-12-04T12:44:49;4.07;;;2.00;;
4051;SDS011;2040;50.924;11.604;2023-12-04T12:47:15;2.00;;;1.40;;
4051;SDS011;2040;50.924;11.604;2023-12-04T12:49:40;4.57;;;2.00;;
4051;SDS011;2040;50.924;11.604;2023-12-04T12:52:07;3.27;;;1.17;;
4051;SDS011;2040;50.924;11.604;2023-12-04T12:54:38;2.10;;;1.80;;
4051;SDS011;2040;50.924;11.604;2023-12-04T12:57:07;1.83;;;1.30;;
4051;SDS011;2040;50.924;11.604;2023-12-04T12:59:34;2.77;;;1.50;;
4051;SDS011;2040;50.924;11.604;2023-12-04T13:02:00;2.47;;;1.93;;
4051;SDS011;2040;50.924;11.604;2023-12-04T13:04:26;3.00;;;1.63;;
4051;SDS011;2040;50.924;11.604;2023-12-04T13:07:00;1.57;;;1.40;;
4051;SDS011;2040;50.924;11.604;2023-12-04T13:09:27;2.83;;;1.77;;
4051;SDS011;2040;50.924;11.604;2023-12-04T13:11:53;3.00;;;1.70;;
4051;SDS011;2040;50.924;11.604;2023-12-04T13:14:19;1.10;;;1.00;;
4051;SDS011;2040;50.924;11.604;2023-12-04T13:16:44;2.30;;;1.57;;
4051;SDS011;2040;50.924;11.604;2023-12-04T13:19:10;4.87;;;1.83;;
4051;SDS011;2040;50.924;11.604;2023-12-04T13:21:35;1.40;;;1.30;;
4051;SDS011;2040;50.924;11.604;2023-12-04T13:24:01;2.10;;;1.60;;
4051;SDS011;2040;50.924;11.604;2023-12-04T13:26:27;1.47;;;1.37;;
4051;SDS011;2040;50.924;11.604;2023-12-04T13:28:53;2.10;;;1.70;;
4051;SDS011;2040;50.924;11.604;2023-12-04T13:31:18;2.47;;;1.60;;
4051;SDS011;2040;50.924;11.604;2023-12-04T13:33:45;2.60;;;1.63;;
4051;SDS011;2040;50.924;11.604;2023-12-04T13:36:12;2.20;;;1.37;;
4051;SDS011;2040;50.924;11.604;2023-12-04T13:38:37;1.23;;;1.13;;
4051;SDS011;2040;50.924;11.604;2023-12-04T13:41:03;2.43;;;1.67;;
4051;SDS011;2040;50.924;11.604;2023-12-04T13:43:47;3.17;;;1.80;;
4051;SDS011;2040;50.924;11.604;2023-12-04T13:46:16;1.63;;;1.37;;
4051;SDS011;2040;50.924;11.604;2023-12-04T13:48:41;3.87;;;1.53;;
4051;SDS011;2040;50.924;11.604;2023-12-04T13:51:10;3.10;;;1.70;;
4051;SDS011;2040;50.924;11.604;2023-12-04T13:53:37;1.70;;;1.30;;
4051;SDS011;2040;50.924;11.604;2023-12-04T13:56:07;3.00;;;1.60;;
4051;SDS011;2040;50.924;11.604;2023-12-04T13:58:45;3.03;;;1.80;;
4051;SDS011;2040;50.924;11.604;2023-12-04T14:01:11;4.97;;;1.37;;
4051;SDS011;2040;50.924;11.604;2023-12-04T14:03:39;1.30;;;1.20;;
4051;SDS011;2040;50.924;11.604;2023-12-04T14:06:05;3.70;;;1.20;;
4051;SDS011;2040;50.924;11.604;2023-12-04T14:08:31;1.77;;;1.47;;
4051;SDS011;2040;50.924;11.604;2023-12-04T14:10:57;2.90;;;1.50;;
4051;SDS011;2040;50.924;11.604;2023-12-04T14:13:23;1.87;;;1.63;;
4051;SDS011;2040;50.924;11.604;2023-12-04T14:15:48;3.70;;;1.67;;
4051;SDS011;2040;50.924;11.604;2023-12-04T14:18:14;2.40;;;1.70;;
4051;SDS011;2040;50.924;11.604;2023-12-04T14:20:39;1.97;;;1.50;;
4051;SDS011;2040;50.924;11.604;2023-12-04T14:23:05;2.17;;;1.50;;
4051;SDS011;2040;50.924;11.604;2023-12-04T14:25:30;3.60;;;1.93;;
4051;SDS011;2040;50.924;11.604;2023-12-04T14:27:56;1.20;;;1.00;;
4051;SDS011;2040;50.924;11.604;2023-12-04T14:30:21;3.80;;;2.30;;
4051;SDS011;2040;50.924;11.604;2023-12-04T14:32:47;2.07;;;1.77;;
4051;SDS011;2040;50.924;11.604;2023-12-04T14:35:13;2.70;;;1.50;;
4051;SDS011;2040;50.924;11.604;2023-12-04T14:37:39;3.70;;;1.70;;
4051;SDS011;2040;50.924;11.604;2023-12-04T14:40:05;2.60;;;1.90;;
4051;SDS011;2040;50.924;11.604;2023-12-04T14:42:31;3.50;;;1.80;;
4051;SDS011;2040;50.924;11.604;2023-12-04T14:44:57;2.03;;;1.67;;
4051;SDS011;2040;50.924;11.604;2023-12-04T14:47:22;4.47;;;2.03;;
4051;SDS011;2040;50.924;11.604;2023-12-04T14:49:48;2.33;;;1.53;;
4051;SDS011;2040;50.924;11.604;2023-12-04T14:52:19;1.40;;;1.30;;
4051;SDS011;2040;50.924;11.604;2023-12-04T14:54:46;2.30;;;1.73;;
4051;SDS011;2040;50.924;11.604;2023-12-04T14:57:32;3.17;;;1.90;;
4051;SDS011;2040;50.924;11.604;2023-12-04T15:00:18;2.17;;;1.70;;